KOJAKWMC

Guest
Details From KOJA - Thomas P Stafford
To KWMC - Winnemucca Muni
Flight Number -
Tags Generated
Created
Modified
Stats Distance 956 nm / 1,771 km
Max Altitude 0 ft / 0 m
Waypoints 6
Social Downloads 0
Likes 0
Share VATSIM

Download

Looking for another format? Having issues loading an existing format? Contact us
Advertisement - Login to hide

Notes

Generated

Route

KOJA TBE YECTU DTA40 MUXSU KWMC

ID Type Via Altitude Latitude Longitude Leg Dist Tot Dist Heading (true) Name
O KOJA APT - 0 ft / 0 m 35.55088˚ -98.66852˚ - 0 nm - -
TBE VOR - 0 ft / 0 m 37.25867˚ -103.60006˚ 259 nm 259 nm 295° / 292° TOBE VOR-DME
YECTU FIX - 0 ft / 0 m 38.56319˚ -107.89289˚ 217 nm 477 nm 292° / 290° -
DTA40 FIX - 0 ft / 0 m 39.85485˚ -112.98996˚ 249 nm 726 nm 290° / 286° -
MUXSU FIX - 0 ft / 0 m 40.87786˚ -117.80017˚ 228 nm 955 nm 287° / 284° -
O KWMC APT - 0 ft / 0 m 40.89097˚ -117.80613˚ 0 nm 956 nm 341° / 341° -

Altitude Profile

Advertisement - Login to hide

Weather


0- 5 10 15 20 25 30 35+ Temperature / ° C

Clouds and Precipitation
Forecast for 2017-12-17 06:00 UTC. Updated an hour ago

Ground ~20,000 ft ~40,000 ft Winds

KOJA

Details ICAO KOJA
Name THOMAS P STAFFORD
Region United States
Timezone America/Chicago (UTC-6.0)
Stats Elevation 1,605 ft / 489 m (AMSL)
Location 35.544837° -98.668502°
Runways 1
Magnetic Variation 4.431° E

METAR

KOJA 170235Z AUTO 17017G20KT 10SM OVC033 10/M01 A2989 RMK AO2

Decode

TAF

Not found

Departure Runways

ID Width Length Bearing (true) Bearing (mag) Surface Threshold Offset Overrun Length
17 75 ft / 23 m 4,411 ft / 1,344 m 179.88° 175.45° Concrete 0 ft / 0 m 0 ft / 0 m
35 75 ft / 23 m 4,411 ft / 1,344 m 359.88° 355.45° Concrete 0 ft / 0 m 0 ft / 0 m

KWMC

Details ICAO KWMC
Name Winnemucca Muni
Region United States
Timezone America/Los_Angeles (UTC-8.0)
Stats Elevation 4,308 ft / 1,313 m (AMSL)
Location 40.896517° -117.805092°
Runways 2
Magnetic Variation 13.252° E

METAR

KWMC 170156Z AUTO 04006KT 10SM CLR M02/M08 A3014 RMK AO2 SLP223 T10221083

Decode

TAF

KWMC 162320Z 1700/1724 35012G18KT P6SM BKN040 FM170200 35007KT P6SM SCT045 FM170800 VRB04KT P6SM FEW250 FM172000 VRB04KT P6SM FEW050 SCT250

Decode

Destination Runways

ID Width Length Bearing (true) Bearing (mag) Surface Threshold Offset Overrun Length
02 75 ft / 23 m 4,798 ft / 1,462 m 39.43° 26.18° Asphalt 0 ft / 0 m 0 ft / 0 m
14 98 ft / 30 m 7,005 ft / 2,135 m 159.73° 146.48° Asphalt 0 ft / 0 m 200 ft / 61 m
20 75 ft / 23 m 4,798 ft / 1,462 m 219.44° 206.19° Asphalt 0 ft / 0 m 151 ft / 46 m
32 98 ft / 30 m 7,005 ft / 2,135 m 339.73° 326.48° Asphalt 0 ft / 0 m 200 ft / 61 m